Time;durP1;ratioP1;P1;durP2;ratioP2;P2;SDS_P1;SDS_P2;PMS_P1;PMS_P2;Temp;Humidity;BMP_temperature;BMP_pressure;BME280_temperature;BME280_humidity;BME280_pressure;Samples;Min_cycle;Max_cycle;Signal;HPM_P1;HPM_P2
2023/02/15 00:01:58;;;;;;;100.68;57.42;;;7.80;94.40;;;;;;4996938;28;20021;-77
2023/02/15 00:04:45;;;;;;;120.07;66.78;;;7.70;94.40;;;;;;5000164;28;20022;-78
2023/02/15 00:07:10;;;;;;;72.45;43.55;;;7.70;94.40;;;;;;4995254;28;20112;-77
2023/02/15 00:09:36;;;;;;;65.72;40.53;;;7.70;94.40;;;;;;4999915;28;21351;-78
2023/02/15 00:12:02;;;;;;;94.90;51.60;;;7.70;94.30;;;;;;5000527;28;20018;-78
2023/02/15 00:14:27;;;;;;;75.53;46.08;;;7.70;94.50;;;;;;4999452;28;20079;-77
2023/02/15 00:16:54;;;;;;;101.10;53.40;;;7.70;94.50;;;;;;4999699;28;20080;-77
2023/02/15 00:19:21;;;;;;;80.90;47.28;;;7.60;94.40;;;;;;4998388;28;20492;-77
2023/02/15 00:21:53;;;;;;;66.50;41.40;;;7.60;94.50;;;;;;5002066;28;20032;-78
2023/02/15 00:24:19;;;;;;;64.60;39.05;;;7.60;94.10;;;;;;4999269;28;20056;-78
2023/02/15 00:26:46;;;;;;;64.85;40.53;;;7.60;94.00;;;;;;4997930;28;20030;-77
2023/02/15 00:29:13;;;;;;;64.47;39.53;;;7.50;94.00;;;;;;5009024;28;20038;-78
2023/02/15 00:31:39;;;;;;;63.30;38.58;;;7.50;94.20;;;;;;5010262;28;20052;-78
2023/02/15 00:34:06;;;;;;;63.50;39.58;;;7.50;94.20;;;;;;5014406;28;20030;-79
2023/02/15 00:36:32;;;;;;;68.75;41.70;;;7.40;94.30;;;;;;5002023;28;20499;-78
2023/02/15 00:38:58;;;;;;;63.63;39.30;;;7.40;94.50;;;;;;5001347;28;20026;-78
2023/02/15 00:41:24;;;;;;;66.82;41.03;;;7.40;94.60;;;;;;5000177;28;20591;-76
2023/02/15 00:43:51;;;;;;;63.67;39.13;;;7.40;94.50;;;;;;5002499;28;20058;-76
2023/02/15 00:46:17;;;;;;;65.07;39.78;;;7.40;94.40;;;;;;4999241;28;20022;-78
2023/02/15 00:48:42;;;;;;;69.57;40.80;;;7.30;94.40;;;;;;4996951;28;20030;-77
2023/02/15 00:51:08;;;;;;;68.22;42.90;;;7.30;94.60;;;;;;4998320;28;20022;-78
2023/02/15 00:53:35;;;;;;;68.70;43.17;;;7.30;94.80;;;;;;4982271;28;20404;-79
2023/02/15 00:56:00;;;;;;;69.90;41.70;;;7.20;94.80;;;;;;5001746;28;20026;-78
2023/02/15 00:58:26;;;;;;;64.97;40.25;;;7.20;94.60;;;;;;5000616;28;20038;-76
2023/02/15 01:00:52;;;;;;;66.60;40.20;;;7.20;94.70;;;;;;4985270;28;20038;-78
2023/02/15 01:03:20;;;;;;;66.50;40.72;;;7.20;94.80;;;;;;4982103;28;20021;-78
2023/02/15 01:05:47;;;;;;;68.82;40.13;;;7.10;95.10;;;;;;4998379;28;20105;-77
2023/02/15 01:08:13;;;;;;;65.78;39.92;;;7.00;94.90;;;;;;5000138;28;20030;-77
2023/02/15 01:10:39;;;;;;;60.45;37.55;;;7.00;94.90;;;;;;5001065;28;20432;-78
2023/02/15 01:13:05;;;;;;;59.45;38.65;;;7.00;95.00;;;;;;4997996;28;20476;-76
2023/02/15 01:15:33;;;;;;;62.30;38.83;;;7.00;95.00;;;;;;4997571;28;20026;-79
2023/02/15 01:17:59;;;;;;;64.60;39.13;;;7.00;94.90;;;;;;4999190;28;20034;-77
2023/02/15 01:20:28;;;;;;;56.97;36.78;;;6.90;95.00;;;;;;4998662;28;20473;-78
2023/02/15 01:22:55;;;;;;;56.83;37.88;;;6.90;95.00;;;;;;4997827;28;20041;-77
2023/02/15 01:25:24;;;;;;;57.92;37.85;;;6.90;95.00;;;;;;5001291;28;20030;-77
2023/02/15 01:27:51;;;;;;;62.38;40.47;;;6.90;94.90;;;;;;5001334;28;20655;-78
2023/02/15 01:30:17;;;;;;;56.03;37.97;;;6.80;95.00;;;;;;4997501;28;20081;-76
2023/02/15 01:32:44;;;;;;;63.13;37.35;;;6.80;95.20;;;;;;4989168;28;20145;-77
2023/02/15 01:35:10;;;;;;;63.78;38.45;;;6.70;95.20;;;;;;5000511;28;20030;-77
2023/02/15 01:37:36;;;;;;;58.33;36.13;;;6.70;95.10;;;;;;5001223;28;20084;-78
2023/02/15 01:40:05;;;;;;;64.00;39.05;;;6.70;95.20;;;;;;4999542;28;20034;-77
2023/02/15 01:42:31;;;;;;;62.03;37.92;;;6.70;95.20;;;;;;4998364;28;20026;-77
2023/02/15 01:45:03;;;;;;;58.17;36.85;;;6.60;95.20;;;;;;5006412;28;20542;-76
2023/02/15 01:47:40;;;;;;;57.92;37.38;;;6.60;95.10;;;;;;4996814;28;20026;-78
2023/02/15 01:50:15;;;;;;;55.08;34.92;;;6.60;94.90;;;;;;4998991;28;20120;-79
2023/02/15 01:53:05;;;;;;;61.38;35.90;;;6.60;94.80;;;;;;4994230;28;20014;-77
2023/02/15 01:55:39;;;;;;;57.15;36.28;;;6.70;94.60;;;;;;5000992;28;20022;-79
2023/02/15 01:58:05;;;;;;;53.22;34.40;;;6.70;94.50;;;;;;4999281;28;20049;-77
2023/02/15 02:00:32;;;;;;;54.45;34.60;;;6.70;94.30;;;;;;4998652;28;20119;-77
2023/02/15 02:02:58;;;;;;;57.10;36.08;;;6.80;94.60;;;;;;4997307;28;20042;-78
2023/02/15 02:05:25;;;;;;;60.25;36.10;;;6.80;94.30;;;;;;4999156;28;20099;-76
2023/02/15 02:07:52;;;;;;;58.70;36.65;;;6.80;94.40;;;;;;4979168;28;20026;-78
2023/02/15 02:10:22;;;;;;;55.35;35.35;;;6.70;94.40;;;;;;5000601;28;20030;-77
2023/02/15 02:12:51;;;;;;;57.00;34.10;;;6.70;94.30;;;;;;5006177;28;20025;-77
2023/02/15 02:15:17;;;;;;;54.63;34.45;;;6.80;94.40;;;;;;4997985;28;20026;-78
2023/02/15 02:18:18;;;;;;;55.88;35.55;;;6.70;94.30;;;;;;5001031;28;20029;-77
2023/02/15 02:20:59;;;;;;;62.22;35.55;;;6.70;94.40;;;;;;4973326;28;20034;-78
2023/02/15 02:23:53;;;;;;;60.78;36.10;;;6.70;94.30;;;;;;4999814;28;20062;-75
2023/02/15 02:26:33;;;;;;;57.17;36.42;;;6.70;94.20;;;;;;4977754;28;20548;-77
2023/02/15 02:29:01;;;;;;;57.53;36.15;;;6.70;94.40;;;;;;4998638;28;20125;-77
2023/02/15 02:31:48;;;;;;;58.65;35.47;;;6.70;94.40;;;;;;5003086;28;20057;-78
2023/02/15 02:34:31;;;;;;;56.03;34.60;;;6.60;94.50;;;;;;4979828;28;20021;-77
2023/02/15 02:36:59;;;;;;;63.58;37.80;;;6.60;94.40;;;;;;4981864;28;20138;-76
2023/02/15 02:39:47;;;;;;;56.72;34.85;;;6.60;94.40;;;;;;5002736;28;20042;-76
2023/02/15 02:42:43;;;;;;;56.17;33.78;;;6.60;94.40;;;;;;4991282;28;20404;-74
2023/02/15 02:45:35;;;;;;;54.05;32.47;;;6.60;94.60;;;;;;5003062;28;20034;-77
2023/02/15 02:48:09;;;;;;;57.45;34.38;;;6.60;94.30;;;;;;4999633;28;20061;-77
2023/02/15 02:50:34;;;;;;;61.28;35.30;;;6.50;94.20;;;;;;5003055;28;20018;-76
2023/02/15 02:53:00;;;;;;;54.92;33.45;;;6.50;94.20;;;;;;5003723;28;20101;-77
2023/02/15 02:55:37;;;;;;;56.10;33.22;;;6.50;94.20;;;;;;5005201;28;20488;-77
2023/02/15 02:58:03;;;;;;;55.50;35.13;;;6.50;94.20;;;;;;4988882;28;20030;-78
2023/02/15 03:00:35;;;;;;;51.22;33.00;;;6.50;94.30;;;;;;5015689;28;20033;-77
2023/02/15 03:03:15;;;;;;;59.03;35.05;;;6.40;94.30;;;;;;5010184;28;20044;-78
2023/02/15 03:05:47;;;;;;;59.95;36.03;;;6.40;94.40;;;;;;5004070;28;20040;-77
2023/02/15 03:08:21;;;;;;;54.05;34.85;;;6.40;94.40;;;;;;5006197;28;20033;-77
2023/02/15 03:10:51;;;;;;;59.95;32.88;;;6.40;94.40;;;;;;5001598;28;20045;-76
2023/02/15 03:13:17;;;;;;;56.58;34.03;;;6.40;94.30;;;;;;4999399;28;20116;-76
2023/02/15 03:16:27;;;;;;;54.30;32.83;;;6.40;94.30;;;;;;4998276;28;20026;-76
2023/02/15 03:18:43;;;;;;;57.63;34.35;;;6.30;94.20;;;;;;5001773;28;20120;-77
2023/02/15 03:21:21;;;;;;;52.97;32.70;;;6.30;94.20;;;;;;4985804;28;20068;-76
2023/02/15 03:23:56;;;;;;;56.42;32.63;;;6.30;94.20;;;;;;4999317;28;20030;-77
2023/02/15 03:26:24;;;;;;;52.92;32.85;;;6.30;94.10;;;;;;5000112;28;20045;-76
2023/02/15 03:28:52;;;;;;;60.35;33.53;;;6.30;94.20;;;;;;4998874;28;20499;-77
2023/02/15 03:31:21;;;;;;;54.10;33.83;;;6.20;94.30;;;;;;5000081;28;20026;-77
2023/02/15 03:34:01;;;;;;;53.17;34.22;;;6.20;94.40;;;;;;4999435;28;20026;-78
2023/02/15 03:36:39;;;;;;;54.72;33.40;;;6.20;94.40;;;;;;4999280;28;20018;-77
2023/02/15 03:39:10;;;;;;;53.53;33.28;;;6.10;94.40;;;;;;4999741;28;20156;-77
2023/02/15 03:41:59;;;;;;;54.10;33.38;;;6.10;94.50;;;;;;5003113;28;20022;-77
2023/02/15 03:44:34;;;;;;;52.40;32.35;;;6.10;94.50;;;;;;5006540;28;20029;-76
2023/02/15 03:47:13;;;;;;;53.42;33.28;;;6.10;94.50;;;;;;4999056;28;20026;-76
2023/02/15 03:49:44;;;;;;;55.13;31.02;;;6.00;94.70;;;;;;4998776;28;20128;-76
2023/02/15 03:52:12;;;;;;;56.55;33.17;;;6.00;94.40;;;;;;4997749;28;20030;-76
2023/02/15 03:54:43;;;;;;;53.75;32.90;;;6.00;94.40;;;;;;4982645;28;20096;-77
2023/02/15 04:03:10;;;;;;;60.28;34.38;;;5.90;94.60;;;;;;4998624;28;20037;-78
2023/02/15 04:05:37;;;;;;;53.78;32.55;;;5.90;94.70;;;;;;4998351;28;20094;-76
2023/02/15 04:08:03;;;;;;;57.10;33.75;;;5.80;94.60;;;;;;5003333;28;20108;-76
2023/02/15 04:13:12;;;;;;;57.67;35.78;;;5.80;94.80;;;;;;4998254;28;20089;-77
2023/02/15 04:26:35;;;;;;;53.67;33.22;;;5.80;94.60;;;;;;4998990;28;22459;-77
2023/02/15 04:29:01;;;;;;;62.05;34.58;;;5.80;94.60;;;;;;5002600;28;20042;-76
2023/02/15 04:31:27;;;;;;;55.35;32.45;;;5.70;94.60;;;;;;4999927;28;20559;-77
2023/02/15 04:33:52;;;;;;;57.75;33.42;;;5.70;94.50;;;;;;5004675;28;20079;-78
2023/02/15 04:36:18;;;;;;;54.50;32.05;;;5.70;94.50;;;;;;5000217;28;20122;-78
2023/02/15 04:38:44;;;;;;;56.20;31.85;;;5.70;94.60;;;;;;4997296;28;20396;-77
2023/02/15 04:41:12;;;;;;;55.85;33.30;;;5.70;94.60;;;;;;4999264;28;20018;-77
2023/02/15 04:43:37;;;;;;;56.38;33.33;;;5.70;94.50;;;;;;4998953;28;20030;-77
2023/02/15 04:46:03;;;;;;;52.80;31.85;;;5.70;94.50;;;;;;4986129;28;20030;-77
2023/02/15 04:48:29;;;;;;;57.80;33.33;;;5.70;94.50;;;;;;4999264;28;20499;-76
2023/02/15 04:50:55;;;;;;;53.28;31.95;;;5.60;94.40;;;;;;4999817;28;20123;-77
2023/02/15 04:53:20;;;;;;;54.85;34.10;;;5.60;94.50;;;;;;5000197;28;20030;-78
2023/02/15 04:55:46;;;;;;;54.83;33.20;;;5.60;94.50;;;;;;5000959;28;20029;-76
2023/02/15 04:58:13;;;;;;;56.00;33.03;;;5.60;94.50;;;;;;4980116;28;20054;-78
2023/02/15 05:00:39;;;;;;;55.45;33.03;;;5.60;94.60;;;;;;5002448;28;20106;-78
2023/02/15 05:03:04;;;;;;;55.53;32.55;;;5.60;94.50;;;;;;4994659;28;20141;-76
2023/02/15 05:05:30;;;;;;;54.22;31.08;;;5.60;94.50;;;;;;4979546;28;20401;-77
2023/02/15 05:07:56;;;;;;;50.90;30.70;;;5.60;94.40;;;;;;4994989;28;20481;-77
2023/02/15 05:10:21;;;;;;;54.65;31.50;;;5.50;94.20;;;;;;4998530;28;20030;-77
2023/02/15 05:12:47;;;;;;;56.78;33.60;;;5.50;94.10;;;;;;5002003;28;20049;-77
2023/02/15 05:15:13;;;;;;;49.30;30.95;;;5.50;94.10;;;;;;5000856;28;20075;-76
2023/02/15 05:17:38;;;;;;;52.53;31.20;;;5.50;94.10;;;;;;4998203;28;20033;-77
2023/02/15 05:20:05;;;;;;;56.22;31.98;;;5.50;94.10;;;;;;4997084;28;20026;-76
2023/02/15 05:22:30;;;;;;;55.22;31.98;;;5.40;94.20;;;;;;5000335;28;20033;-76
2023/02/15 05:30:24;;;;;;;53.60;32.38;;;5.30;94.70;;;;;;4999793;28;20620;-77
2023/02/15 05:32:50;;;;;;;51.60;30.60;;;5.20;94.70;;;;;;5005666;28;20129;-76
2023/02/15 05:35:16;;;;;;;56.65;33.78;;;5.30;94.80;;;;;;5005968;28;20022;-76
2023/02/15 05:37:41;;;;;;;53.80;30.83;;;5.30;94.80;;;;;;5002280;28;20034;-75
2023/02/15 05:40:08;;;;;;;53.63;31.08;;;5.30;95.00;;;;;;4998150;28;20026;-76
2023/02/15 05:42:34;;;;;;;54.55;33.40;;;5.30;94.70;;;;;;4998772;28;20080;-76
2023/02/15 05:44:59;;;;;;;49.95;30.92;;;5.30;94.70;;;;;;4994382;28;20489;-75
2023/02/15 05:47:25;;;;;;;51.65;32.25;;;5.30;94.60;;;;;;4995928;28;20088;-76
2023/02/15 05:49:51;;;;;;;54.97;32.97;;;5.30;94.60;;;;;;4998705;28;20041;-77
2023/02/15 05:52:17;;;;;;;58.88;33.92;;;5.20;94.70;;;;;;4997512;28;20034;-76
2023/02/15 05:54:42;;;;;;;54.90;33.70;;;5.20;94.70;;;;;;4997398;28;20133;-76
2023/02/15 05:57:08;;;;;;;59.30;31.70;;;5.20;94.70;;;;;;4998872;28;20034;-76
2023/02/15 05:59:33;;;;;;;57.53;32.78;;;5.10;94.80;;;;;;4997218;28;20092;-75
2023/02/15 06:01:59;;;;;;;58.58;30.25;;;5.10;95.00;;;;;;4998600;28;20041;-76
2023/02/15 06:04:25;;;;;;;64.20;32.22;;;5.10;95.00;;;;;;4994899;28;20044;-76
2023/02/15 06:06:50;;;;;;;58.97;34.17;;;5.10;94.90;;;;;;5000699;28;20481;-77
2023/02/15 06:09:18;;;;;;;56.50;34.97;;;5.10;95.00;;;;;;5000225;28;20047;-77
2023/02/15 06:11:45;;;;;;;51.67;31.63;;;5.10;95.00;;;;;;5002221;28;20037;-75
2023/02/15 06:14:11;;;;;;;52.60;31.88;;;5.00;95.10;;;;;;4983399;28;20019;-75
2023/02/15 06:16:36;;;;;;;50.33;32.50;;;5.10;95.00;;;;;;4980641;28;20083;-77
2023/02/15 06:19:03;;;;;;;54.03;31.73;;;5.00;94.90;;;;;;5001102;28;20034;-75
2023/02/15 06:21:30;;;;;;;54.25;31.38;;;5.10;94.90;;;;;;5000077;28;20495;-76
2023/02/15 06:23:56;;;;;;;57.22;33.58;;;5.00;94.80;;;;;;5004214;28;20060;-77
2023/02/15 06:26:21;;;;;;;56.42;30.88;;;5.00;94.70;;;;;;4998891;28;20481;-76
2023/02/15 06:28:48;;;;;;;59.83;33.65;;;5.10;94.70;;;;;;4998985;28;20034;-77
2023/02/15 06:31:14;;;;;;;54.60;33.13;;;5.00;94.80;;;;;;4999847;28;20037;-76
2023/02/15 06:33:40;;;;;;;53.67;33.17;;;5.00;94.90;;;;;;4999560;28;20030;-77
2023/02/15 06:36:06;;;;;;;64.90;35.65;;;5.00;94.90;;;;;;5001621;28;20022;-75
2023/02/15 06:38:31;;;;;;;57.25;35.40;;;5.00;94.80;;;;;;4984406;28;20433;-75
2023/02/15 06:40:57;;;;;;;57.55;33.38;;;5.00;95.00;;;;;;4999812;28;20036;-78
2023/02/15 06:43:23;;;;;;;60.63;35.03;;;5.00;95.00;;;;;;5012865;28;20026;-77
2023/02/15 06:45:48;;;;;;;55.90;33.40;;;5.00;95.10;;;;;;5005081;28;20494;-77
2023/02/15 06:48:14;;;;;;;55.55;33.55;;;4.90;95.20;;;;;;5003671;28;20588;-76
2023/02/15 06:50:40;;;;;;;56.00;34.08;;;4.90;95.20;;;;;;5016219;28;20477;-78
2023/02/15 06:53:06;;;;;;;61.05;38.45;;;4.90;95.20;;;;;;5014614;28;20110;-78
2023/02/15 06:55:32;;;;;;;61.38;36.20;;;5.00;95.20;;;;;;5010912;28;20109;-79
2023/02/15 06:57:57;;;;;;;64.38;34.42;;;4.90;95.20;;;;;;5008258;28;20099;-77
2023/02/15 07:00:23;;;;;;;56.80;34.25;;;4.90;95.30;;;;;;5003148;28;20026;-77
2023/02/15 07:02:57;;;;;;;59.97;34.33;;;4.90;95.40;;;;;;4995493;28;20061;-78
2023/02/15 07:05:23;;;;;;;56.30;31.92;;;4.80;95.50;;;;;;5005814;28;20029;-77
2023/02/15 07:07:49;;;;;;;57.47;34.38;;;4.80;95.50;;;;;;5011539;28;20044;-78
2023/02/15 07:10:15;;;;;;;59.10;34.75;;;4.80;95.80;;;;;;5009182;28;20103;-77
2023/02/15 07:12:41;;;;;;;60.75;35.03;;;4.90;95.80;;;;;;5004462;28;20041;-79
2023/02/15 07:15:12;;;;;;;54.55;33.08;;;4.90;95.80;;;;;;4997788;28;20018;-77
2023/02/15 07:17:38;;;;;;;51.67;33.33;;;4.90;95.80;;;;;;5006639;28;20040;-77
2023/02/15 07:20:10;;;;;;;52.15;32.95;;;5.10;96.00;;;;;;5006991;28;20023;-78
2023/02/15 07:22:36;;;;;;;49.88;30.77;;;5.30;95.80;;;;;;5014408;28;20441;-79
2023/02/15 07:25:03;;;;;;;49.08;30.75;;;5.50;95.40;;;;;;5011174;28;20018;-78
2023/02/15 07:27:31;;;;;;;51.42;30.90;;;5.60;95.10;;;;;;4987928;28;20038;-77
2023/02/15 07:29:56;;;;;;;50.95;29.85;;;5.80;94.60;;;;;;4994280;28;20035;-77
2023/02/15 07:32:22;;;;;;;38.00;26.05;;;5.90;94.50;;;;;;5008615;28;20930;-77
2023/02/15 07:34:47;;;;;;;46.85;29.05;;;6.10;94.20;;;;;;5010112;28;20026;-78
2023/02/15 07:37:13;;;;;;;44.47;28.90;;;6.30;93.60;;;;;;5006620;28;20026;-77
2023/02/15 07:39:38;;;;;;;44.75;27.83;;;6.40;93.30;;;;;;5015175;28;20480;-77
2023/02/15 07:42:06;;;;;;;43.22;27.60;;;6.50;93.40;;;;;;5017242;28;20030;-78
2023/02/15 07:44:33;;;;;;;42.67;27.67;;;6.60;92.90;;;;;;5013289;28;20093;-77
2023/02/15 07:46:59;;;;;;;39.42;27.02;;;6.70;92.50;;;;;;5005889;28;20032;-78
2023/02/15 07:49:25;;;;;;;45.38;28.17;;;6.90;92.30;;;;;;5010275;28;20034;-77
2023/02/15 07:51:51;;;;;;;41.05;27.00;;;7.00;92.10;;;;;;5004787;28;20106;-79
2023/02/15 07:54:16;;;;;;;40.60;27.80;;;7.20;91.60;;;;;;4995473;28;20022;-77
2023/02/15 07:56:42;;;;;;;42.03;26.50;;;7.30;91.20;;;;;;5012262;28;20022;-78
2023/02/15 07:59:09;;;;;;;38.65;25.70;;;7.40;91.10;;;;;;5012421;28;20224;-78
2023/02/15 08:01:36;;;;;;;39.90;26.58;;;7.40;91.10;;;;;;4994200;28;20062;-79
2023/02/15 08:04:04;;;;;;;45.00;27.40;;;7.40;91.00;;;;;;5003454;28;20034;-77
2023/02/15 08:06:34;;;;;;;45.15;28.85;;;7.50;91.10;;;;;;5010842;28;21249;-77
2023/02/15 08:09:01;;;;;;;;;;;7.60;90.70;;;;;;5011221;28;20636;-77
2023/02/15 08:11:32;;;;;;;40.75;27.45;;;7.70;90.70;;;;;;5010745;28;19964;-76
2023/02/15 08:14:03;;;;;;;43.00;26.45;;;7.70;90.50;;;;;;5008104;28;20026;-77
2023/02/15 08:16:50;;;;;;;38.15;25.08;;;7.80;90.10;;;;;;4991865;28;20041;-77
2023/02/15 08:19:20;;;;;;;37.78;24.88;;;7.80;90.30;;;;;;5010598;28;20508;-77
2023/02/15 08:21:51;;;;;;;42.38;25.73;;;7.90;89.70;;;;;;5009045;28;20018;-77
2023/02/15 08:24:23;;;;;;;35.63;24.00;;;7.90;90.00;;;;;;5005262;28;20036;-78
2023/02/15 08:26:50;;;;;;;36.00;22.75;;;8.00;89.60;;;;;;4996598;28;20060;-78
2023/02/15 08:29:17;;;;;;;41.85;27.85;;;8.10;89.60;;;;;;5002829;28;20073;-78
2023/02/15 08:31:44;;;;;;;45.40;27.33;;;8.10;88.30;;;;;;5009295;28;20400;-78
2023/02/15 08:34:13;;;;;;;40.03;27.58;;;8.10;88.70;;;;;;5000605;28;20022;-77
2023/02/15 08:36:38;;;;;;;41.70;27.60;;;8.20;88.30;;;;;;4994690;28;20118;-77
2023/02/15 08:39:05;;;;;;;39.80;27.38;;;8.30;88.10;;;;;;5004947;28;20101;-74
2023/02/15 08:41:34;;;;;;;43.15;27.80;;;8.30;87.10;;;;;;4992519;28;20485;-75
2023/02/15 08:44:02;;;;;;;40.38;26.23;;;8.30;87.10;;;;;;5009003;28;20026;-74
2023/02/15 08:46:30;;;;;;;42.15;27.67;;;8.30;86.60;;;;;;5004893;28;20025;-75
2023/02/15 08:48:56;;;;;;;41.65;28.98;;;8.40;86.50;;;;;;4997875;28;20092;-74
2023/02/15 08:51:24;;;;;;;38.20;27.15;;;8.40;86.70;;;;;;4991612;28;20034;-74
2023/02/15 08:53:52;;;;;;;44.20;27.33;;;8.50;86.00;;;;;;4988554;28;20025;-75
2023/02/15 08:56:31;;;;;;;42.92;26.80;;;8.60;86.00;;;;;;5008841;28;20483;-74
2023/02/15 08:58:57;;;;;;;36.83;25.95;;;8.70;84.90;;;;;;4999654;28;20053;-74
2023/02/15 09:01:28;;;;;;;39.40;26.58;;;8.80;84.20;;;;;;5008068;28;20064;-74
2023/02/15 09:04:03;;;;;;;45.22;27.90;;;8.80;85.60;;;;;;4996958;28;20033;-75
2023/02/15 09:06:30;;;;;;;40.75;28.63;;;8.90;85.30;;;;;;5009478;28;20022;-74
2023/02/15 09:08:56;;;;;;;41.72;29.10;;;9.00;84.60;;;;;;5007178;28;20034;-74
2023/02/15 09:11:25;;;;;;;39.53;27.30;;;9.00;84.30;;;;;;5006347;28;20473;-74
2023/02/15 09:14:05;;;;;;;43.95;27.63;;;9.10;84.10;;;;;;5009387;28;20026;-75
2023/02/15 09:16:33;;;;;;;;;;;9.20;83.50;;;;;;5006923;28;20026;-74
2023/02/15 09:19:01;;;;;;;41.60;27.30;;;9.20;83.50;;;;;;5002500;28;19917;-74
2023/02/15 09:21:27;;;;;;;41.47;28.17;;;9.30;83.30;;;;;;5009834;28;20014;-76
2023/02/15 09:23:59;;;;;;;42.00;27.83;;;9.30;83.00;;;;;;5001392;28;20034;-74
2023/02/15 09:26:25;;;;;;;44.17;27.77;;;9.40;83.30;;;;;;5001474;28;20508;-75
2023/02/15 09:28:55;;;;;;;43.47;28.15;;;9.30;83.30;;;;;;4990857;28;20758;-74
2023/02/15 09:31:23;;;;;;;44.65;30.30;;;9.40;83.00;;;;;;5009043;28;20065;-74
2023/02/15 09:33:49;;;;;;;42.13;28.98;;;9.50;83.00;;;;;;5008998;28;20034;-76
2023/02/15 09:36:24;;;;;;;43.13;30.13;;;9.50;83.60;;;;;;4999981;28;20029;-75
2023/02/15 09:38:58;;;;;;;46.38;30.70;;;9.60;82.40;;;;;;5006185;28;20480;-75
2023/02/15 09:41:42;;;;;;;50.88;30.60;;;9.60;82.60;;;;;;5002363;28;20033;-75
2023/02/15 09:44:13;;;;;;;40.67;26.40;;;9.60;82.30;;;;;;4996519;28;20037;-74
2023/02/15 09:47:20;;;;;;;41.75;27.48;;;9.50;82.80;;;;;;5008810;28;20101;-75
2023/02/15 09:50:10;;;;;;;44.13;28.20;;;9.50;83.90;;;;;;4991057;28;20092;-75
2023/02/15 09:53:14;;;;;;;42.47;28.98;;;9.40;84.20;;;;;;5008570;28;20049;-74
2023/02/15 09:55:57;;;;;;;46.55;30.15;;;9.70;84.20;;;;;;5010896;28;20075;-76
2023/02/15 09:58:31;;;;;;;41.83;27.55;;;9.70;83.20;;;;;;4994418;28;20132;-75
2023/02/15 10:01:29;;;;;;;43.60;28.80;;;9.80;84.80;;;;;;5009817;28;20076;-75
2023/02/15 10:04:14;;;;;;;43.63;29.35;;;10.20;83.40;;;;;;4971227;28;20109;-73
2023/02/15 10:06:50;;;;;;;41.88;27.80;;;10.30;82.20;;;;;;5008400;28;20033;-75
2023/02/15 10:09:33;;;;;;;43.08;27.95;;;10.50;81.70;;;;;;5000260;28;20089;-76
2023/02/15 10:12:27;;;;;;;42.55;30.08;;;10.50;81.30;;;;;;5002651;28;20042;-75
2023/02/15 10:15:14;;;;;;;42.88;29.20;;;10.70;81.00;;;;;;5002699;28;20026;-75
2023/02/15 10:17:48;;;;;;;43.22;28.25;;;10.80;80.70;;;;;;5007848;28;20030;-75
2023/02/15 10:20:50;;;;;;;39.38;26.23;;;10.90;80.60;;;;;;5009019;28;20063;-73
2023/02/15 10:23:25;;;;;;;38.90;25.80;;;11.00;79.90;;;;;;5006297;28;20053;-75
2023/02/15 10:26:13;;;;;;;38.70;25.63;;;11.10;79.50;;;;;;5009192;28;20068;-75
2023/02/15 10:28:47;;;;;;;36.22;25.10;;;11.30;79.60;;;;;;5007065;28;20042;-74
2023/02/15 10:31:34;;;;;;;42.50;29.83;;;11.40;79.00;;;;;;4976950;28;20022;-75
2023/02/15 10:34:18;;;;;;;39.40;27.92;;;11.60;77.30;;;;;;5007771;28;20137;-74
2023/02/15 10:37:22;;;;;;;36.22;24.83;;;11.70;77.70;;;;;;4996355;28;20485;-75
2023/02/15 10:39:58;;;;;;;40.42;27.42;;;11.90;76.70;;;;;;5005343;28;20061;-75
2023/02/15 10:42:49;;;;;;;40.60;28.77;;;12.10;75.80;;;;;;5002210;28;20064;-75
2023/02/15 10:45:39;;;;;;;38.45;26.42;;;12.20;74.80;;;;;;4985133;28;20029;-75
2023/02/15 10:48:33;;;;;;;37.53;25.88;;;12.20;74.90;;;;;;5002606;28;20045;-74
2023/02/15 10:51:12;;;;;;;42.53;28.25;;;12.50;74.70;;;;;;5001372;28;20405;-75
2023/02/15 10:54:14;;;;;;;36.25;24.35;;;12.60;74.40;;;;;;5001124;28;20400;-74
2023/02/15 10:57:08;;;;;;;36.92;22.60;;;12.70;73.20;;;;;;4985392;28;20057;-75
2023/02/15 10:59:59;;;;;;;36.28;24.35;;;12.90;73.10;;;;;;5005571;28;20038;-76
2023/02/15 11:02:55;;;;;;;39.28;27.30;;;13.00;72.10;;;;;;4989343;28;20022;-75
2023/02/15 11:05:54;;;;;;;38.63;25.95;;;13.40;72.20;;;;;;5005873;28;20026;-75
2023/02/15 11:08:23;;;;;;;36.40;24.75;;;13.50;69.20;;;;;;5001654;28;20034;-76
2023/02/15 11:10:53;;;;;;;39.65;26.83;;;13.60;69.80;;;;;;4981037;28;20030;-75
2023/02/15 11:13:23;;;;;;;34.00;23.52;;;13.70;68.80;;;;;;5007056;28;20022;-75
2023/02/15 11:16:03;;;;;;;36.78;24.50;;;13.80;68.70;;;;;;5005059;28;20400;-76
2023/02/15 11:18:37;;;;;;;38.45;25.27;;;13.80;67.30;;;;;;5010762;28;20030;-76
2023/02/15 11:21:22;;;;;;;34.55;21.35;;;14.00;67.40;;;;;;5007058;28;20080;-75
2023/02/15 11:23:48;;;;;;;37.75;25.85;;;14.20;67.40;;;;;;5009340;28;20030;-74
2023/02/15 11:26:22;;;;;;;38.13;25.83;;;14.30;66.20;;;;;;4998528;28;20101;-74
2023/02/15 11:28:54;;;;;;;38.63;25.17;;;14.50;64.20;;;;;;5003771;28;20041;-75
2023/02/15 11:31:23;;;;;;;34.25;24.65;;;14.70;65.40;;;;;;5005171;28;20038;-77
2023/02/15 11:34:03;;;;;;;38.03;25.25;;;14.80;62.20;;;;;;4984751;28;20445;-76
2023/02/15 11:36:33;;;;;;;38.10;23.20;;;14.80;62.10;;;;;;5001497;28;20026;-75
2023/02/15 11:39:01;;;;;;;;;;;14.80;65.00;;;;;;4999178;28;20022;-75
2023/02/15 11:41:32;;;;;;;41.00;26.92;;;14.90;62.90;;;;;;5010706;28;19946;-76
2023/02/15 11:44:23;;;;;;;37.28;25.67;;;15.00;61.30;;;;;;4997806;28;20025;-75
2023/02/15 11:46:49;;;;;;;41.65;27.88;;;15.20;61.80;;;;;;4981787;28;20504;-76
2023/02/15 11:49:30;;;;;;;39.75;27.27;;;15.30;60.00;;;;;;5003793;28;20076;-75
2023/02/15 11:51:55;;;;;;;;;;;15.40;60.20;;;;;;5007923;28;20038;-76
2023/02/15 11:54:26;;;;;;;39.63;25.60;;;15.60;60.90;;;;;;4988129;28;19906;-75
2023/02/15 11:56:52;;;;;;;37.58;25.75;;;15.70;59.50;;;;;;4999203;28;20029;-74
2023/02/15 11:59:27;;;;;;;42.47;26.45;;;15.70;59.70;;;;;;5010615;28;20109;-75
2023/02/15 12:01:52;;;;;;;42.33;27.42;;;15.60;59.40;;;;;;5009292;28;20129;-75
2023/02/15 12:04:39;;;;;;;38.20;27.13;;;15.50;59.90;;;;;;5001720;28;20560;-75
2023/02/15 12:07:30;;;;;;;37.25;25.38;;;15.50;60.00;;;;;;5011492;28;20377;-75
2023/02/15 12:10:17;;;;;;;40.65;27.63;;;15.50;60.20;;;;;;5013492;28;20120;-75
2023/02/15 12:12:44;;;;;;;39.15;25.95;;;15.50;61.40;;;;;;5004224;28;20033;-75
2023/02/15 12:15:15;;;;;;;40.30;26.13;;;15.50;59.80;;;;;;5008185;28;20034;-75
2023/02/15 12:17:50;;;;;;;38.10;26.70;;;15.60;59.40;;;;;;4999977;28;20042;-75
2023/02/15 12:20:15;;;;;;;41.63;27.92;;;15.80;59.30;;;;;;5003036;28;20064;-75
2023/02/15 12:22:54;;;;;;;37.90;25.85;;;15.80;58.80;;;;;;4991161;28;20050;-76
2023/02/15 12:25:29;;;;;;;36.22;25.20;;;15.80;59.10;;;;;;4996368;28;20022;-75
2023/02/15 12:27:55;;;;;;;47.47;27.65;;;15.80;59.80;;;;;;5000497;28;20018;-75
2023/02/15 12:30:31;;;;;;;42.60;29.08;;;15.90;59.10;;;;;;5007827;28;20477;-75
2023/02/15 12:33:23;;;;;;;36.60;24.98;;;16.00;58.40;;;;;;5009358;28;20042;-76
2023/02/15 12:35:59;;;;;;;36.25;23.55;;;16.00;60.00;;;;;;5003589;28;20030;-76
2023/02/15 12:38:27;;;;;;;39.67;26.33;;;16.00;59.80;;;;;;5007342;28;20030;-74
2023/02/15 12:41:03;;;;;;;41.95;28.65;;;16.00;57.80;;;;;;5002761;28;20508;-76
2023/02/15 12:43:33;;;;;;;41.40;28.02;;;16.00;58.10;;;;;;5000598;28;20046;-77
2023/02/15 12:46:25;;;;;;;40.47;27.60;;;16.10;58.70;;;;;;4995292;28;20131;-75
2023/02/15 12:49:07;;;;;;;34.60;23.35;;;16.10;58.60;;;;;;4999120;28;20121;-75
2023/02/15 12:51:44;;;;;;;42.42;29.02;;;16.20;62.40;;;;;;5000643;28;20033;-76
2023/02/15 12:54:30;;;;;;;39.95;29.05;;;16.20;57.70;;;;;;5008858;28;20026;-74
2023/02/15 12:56:57;;;;;;;46.35;29.65;;;16.20;59.50;;;;;;4994810;28;20065;-77
2023/02/15 12:59:23;;;;;;;40.78;26.42;;;16.40;57.70;;;;;;5003879;28;20389;-75
2023/02/15 13:01:51;;;;;;;38.58;28.05;;;16.50;57.40;;;;;;5008859;28;20022;-76
2023/02/15 13:04:27;;;;;;;45.95;28.75;;;16.70;57.20;;;;;;5007572;28;20186;-75
2023/02/15 13:06:57;;;;;;;38.72;26.83;;;16.80;56.70;;;;;;5004630;28;20537;-76
2023/02/15 13:09:35;;;;;;;;;;;16.90;56.50;;;;;;5006655;28;20034;-75
2023/02/15 13:12:27;;;;;;;41.80;27.73;;;16.90;58.40;;;;;;5003560;28;20004;-75
2023/02/15 13:14:54;;;;;;;40.60;28.02;;;16.80;57.80;;;;;;4995015;28;20041;-77
2023/02/15 13:17:33;;;;;;;43.80;28.77;;;16.80;56.10;;;;;;4995528;28;20030;-75
2023/02/15 13:20:16;;;;;;;35.22;24.92;;;16.70;56.30;;;;;;5001791;28;20443;-75
2023/02/15 13:22:46;;;;;;;38.42;28.23;;;16.60;56.90;;;;;;5002129;28;20037;-75
2023/02/15 13:25:14;;;;;;;;;;;16.50;57.00;;;;;;5009045;28;20122;-74